createdAt,value
2023-01-19T00:01:25.679Z,23.30
2023-01-19T00:03:52.126Z,23.26
2023-01-19T00:06:18.587Z,23.29
2023-01-19T00:08:46.154Z,23.30
2023-01-19T00:11:12.853Z,23.25
2023-01-19T00:13:39.528Z,23.27
2023-01-19T00:16:06.502Z,23.31
2023-01-19T00:18:33.053Z,23.28
2023-01-19T00:20:59.451Z,23.29
2023-01-19T00:23:25.855Z,23.28
2023-01-19T00:25:52.255Z,23.27
2023-01-19T00:28:18.789Z,23.27
2023-01-19T00:30:47.934Z,23.25
2023-01-19T00:33:15.108Z,23.28
2023-01-19T00:35:42.729Z,23.19
2023-01-19T00:38:09.452Z,23.22
2023-01-19T00:40:35.847Z,23.17
2023-01-19T00:43:03.341Z,23.15
2023-01-19T00:45:29.981Z,23.19
2023-01-19T00:47:59.235Z,23.15
2023-01-19T00:50:26.266Z,23.10
2023-01-19T00:52:53.078Z,23.08
2023-01-19T00:55:19.630Z,23.07
2023-01-19T00:57:46.110Z,23.02
2023-01-19T01:00:13.504Z,22.96
2023-01-19T01:02:40.244Z,23.01
2023-01-19T01:05:06.824Z,22.99
2023-01-19T01:07:40.801Z,23.02
2023-01-19T01:10:10.672Z,22.96
2023-01-19T01:12:39.544Z,23.00
2023-01-19T01:15:09.246Z,22.96
2023-01-19T01:17:35.695Z,23.01
2023-01-19T01:20:02.097Z,22.90
2023-01-19T01:22:28.544Z,23.00
2023-01-19T01:24:54.945Z,22.96
2023-01-19T01:27:21.341Z,23.09
2023-01-19T01:29:48.041Z,23.02
2023-01-19T01:32:14.726Z,23.09
2023-01-19T01:34:41.114Z,23.02
2023-01-19T01:37:10.173Z,22.99
2023-01-19T01:39:36.560Z,22.97
2023-01-19T01:42:03.433Z,23.02
2023-01-19T01:44:56.127Z,22.98
2023-01-19T01:47:30.947Z,22.98
2023-01-19T01:50:17.208Z,22.92
2023-01-19T01:53:07.076Z,23.00
2023-01-19T01:55:35.056Z,22.93
2023-01-19T01:58:01.755Z,22.98
2023-01-19T02:00:28.187Z,22.90
2023-01-19T02:03:00.285Z,22.86
2023-01-19T02:05:28.089Z,22.84
2023-01-19T02:08:15.960Z,22.82
2023-01-19T02:11:01.275Z,22.91
2023-01-19T02:13:28.666Z,22.97
2023-01-19T02:15:55.920Z,22.92
2023-01-19T02:18:22.756Z,22.90
2023-01-19T02:21:00.796Z,22.96
2023-01-19T02:23:47.539Z,22.91
2023-01-19T02:26:16.009Z,22.94
2023-01-19T02:28:43.643Z,22.92
2023-01-19T02:31:10.680Z,22.92
2023-01-19T02:33:37.374Z,22.86
2023-01-19T02:36:04.618Z,22.84
2023-01-19T02:38:31.003Z,22.81
2023-01-19T02:40:57.949Z,22.82
2023-01-19T02:43:24.511Z,22.77
2023-01-19T02:45:50.951Z,22.85
2023-01-19T02:48:18.620Z,22.79
2023-01-19T02:50:52.196Z,22.70
2023-01-19T02:53:24.660Z,22.57
2023-01-19T02:55:56.127Z,22.54
2023-01-19T02:58:46.410Z,22.47
2023-01-19T03:01:15.312Z,22.54
2023-01-19T03:04:03.142Z,22.65
2023-01-19T03:06:32.668Z,22.89
2023-01-19T03:09:01.966Z,23.02
2023-01-19T03:11:29.724Z,23.21
2023-01-19T03:14:01.996Z,23.32
2023-01-19T03:16:34.589Z,23.50
2023-01-19T03:19:14.529Z,23.73
2023-01-19T03:21:43.267Z,23.89
2023-01-19T03:24:09.836Z,24.18
2023-01-19T03:26:37.647Z,24.46
2023-01-19T03:29:04.159Z,24.64
2023-01-19T03:31:30.633Z,24.93
2023-01-19T03:33:58.325Z,25.14
2023-01-19T03:36:36.989Z,25.46
2023-01-19T03:39:03.690Z,25.81
2023-01-19T03:41:30.086Z,26.12
2023-01-19T03:43:56.534Z,26.27
2023-01-19T03:46:22.973Z,26.14
2023-01-19T03:48:49.785Z,25.93
2023-01-19T03:51:16.198Z,25.55
2023-01-19T03:53:43.075Z,25.15
2023-01-19T03:56:18.922Z,24.42
2023-01-19T03:58:45.773Z,23.25
2023-01-19T04:01:12.352Z,21.95
2023-01-19T04:03:38.801Z,20.74
2023-01-19T04:06:05.254Z,19.82
2023-01-19T04:08:32.578Z,19.41
2023-01-19T04:10:59.025Z,19.27
2023-01-19T04:13:28.196Z,19.20
2023-01-19T04:15:54.700Z,19.11
2023-01-19T04:18:21.158Z,19.01
2023-01-19T04:20:47.531Z,18.93
2023-01-19T04:23:13.942Z,18.86
2023-01-19T04:25:40.417Z,18.80
2023-01-19T04:28:06.863Z,18.76
2023-01-19T04:30:33.301Z,18.70
2023-01-19T04:33:00.259Z,18.64
2023-01-19T04:35:26.926Z,18.60
2023-01-19T04:37:53.302Z,18.54
2023-01-19T04:40:19.699Z,18.52
2023-01-19T04:42:46.168Z,18.46
2023-01-19T04:45:13.035Z,18.40
2023-01-19T04:47:39.533Z,18.37
2023-01-19T04:50:07.034Z,18.33
2023-01-19T04:52:36.116Z,18.27
2023-01-19T04:55:03.204Z,18.23
2023-01-19T04:57:30.334Z,18.18
2023-01-19T04:59:57.199Z,18.14
2023-01-19T05:02:23.848Z,18.11
2023-01-19T05:04:50.283Z,18.09
2023-01-19T05:07:17.065Z,18.07
2023-01-19T05:09:43.501Z,18.03
2023-01-19T05:12:09.941Z,18.02
2023-01-19T05:14:36.707Z,17.98
2023-01-19T05:17:03.266Z,17.94
2023-01-19T05:19:29.806Z,17.93
2023-01-19T05:21:56.211Z,17.92
2023-01-19T05:24:22.793Z,17.87
2023-01-19T05:26:49.168Z,17.86
2023-01-19T05:29:15.635Z,17.90
2023-01-19T05:31:42.069Z,17.86
2023-01-19T05:34:10.129Z,17.85
2023-01-19T05:36:36.527Z,17.84
2023-01-19T05:39:02.914Z,17.85
2023-01-19T05:41:29.294Z,17.85
2023-01-19T05:43:55.861Z,17.84
2023-01-19T05:46:22.379Z,17.86
2023-01-19T05:48:48.809Z,17.85
2023-01-19T05:51:15.291Z,17.86
2023-01-19T05:53:41.709Z,17.84
2023-01-19T05:56:09.049Z,17.84
2023-01-19T05:58:35.927Z,17.83
2023-01-19T06:01:03.054Z,17.85
2023-01-19T06:03:29.528Z,17.83
2023-01-19T06:05:57.209Z,17.84
2023-01-19T06:08:23.631Z,17.84
2023-01-19T06:10:50.047Z,17.81
2023-01-19T06:13:17.168Z,17.83
2023-01-19T06:15:45.039Z,17.84
2023-01-19T06:18:11.836Z,17.81
2023-01-19T06:20:38.488Z,17.80
2023-01-19T06:23:04.985Z,17.80
2023-01-19T06:25:31.391Z,17.79
2023-01-19T06:27:57.783Z,17.78
2023-01-19T06:30:24.208Z,17.80
2023-01-19T06:32:50.658Z,17.79
2023-01-19T06:35:18.368Z,17.77
2023-01-19T06:37:44.877Z,17.77
2023-01-19T06:40:13.610Z,17.76
2023-01-19T06:42:40.793Z,17.72
2023-01-19T06:45:07.528Z,17.69
2023-01-19T06:47:34.452Z,17.76
2023-01-19T06:50:01.838Z,17.86
2023-01-19T06:52:28.548Z,18.01
2023-01-19T06:54:54.985Z,18.20
2023-01-19T06:57:23.190Z,18.43
2023-01-19T06:59:49.611Z,18.68
2023-01-19T07:02:27.985Z,18.90
2023-01-19T07:04:55.244Z,19.21
2023-01-19T07:07:21.639Z,19.53
2023-01-19T07:09:48.196Z,19.83
2023-01-19T07:12:14.688Z,20.19
2023-01-19T07:14:41.124Z,20.34
2023-01-19T07:17:07.815Z,20.14
2023-01-19T07:19:35.320Z,20.19
2023-01-19T07:22:02.317Z,20.24
2023-01-19T07:24:30.584Z,19.83
2023-01-19T07:26:57.007Z,19.17
2023-01-19T07:29:23.390Z,18.60
2023-01-19T07:31:50.219Z,18.60
2023-01-19T07:34:16.965Z,18.88
2023-01-19T07:36:44.124Z,18.95
2023-01-19T07:39:10.539Z,18.87
2023-01-19T07:41:36.981Z,18.90
2023-01-19T07:44:03.487Z,18.91
2023-01-19T07:46:29.964Z,18.86
2023-01-19T07:48:56.424Z,18.93
2023-01-19T07:51:22.827Z,19.07
2023-01-19T07:53:52.227Z,19.01
2023-01-19T07:56:18.663Z,19.02
2023-01-19T07:58:45.159Z,18.95
2023-01-19T08:01:12.203Z,19.05
2023-01-19T08:03:38.747Z,19.07
2023-01-19T08:06:05.483Z,19.16
2023-01-19T08:08:32.516Z,19.21
2023-01-19T08:10:58.993Z,19.21
2023-01-19T08:13:25.694Z,19.13
2023-01-19T08:15:52.654Z,19.09
2023-01-19T08:18:19.145Z,19.16
2023-01-19T08:20:46.010Z,19.13
2023-01-19T08:23:12.638Z,19.18
2023-01-19T08:25:40.886Z,19.08
2023-01-19T08:28:07.280Z,19.11
2023-01-19T08:30:33.772Z,19.09
2023-01-19T08:33:08.287Z,19.05
2023-01-19T08:35:36.848Z,19.02
2023-01-19T08:38:03.964Z,19.05
2023-01-19T08:40:30.704Z,19.11
2023-01-19T08:43:07.717Z,19.06
2023-01-19T08:45:36.784Z,19.27
2023-01-19T08:48:03.380Z,19.18
2023-01-19T08:50:30.254Z,19.20
2023-01-19T08:53:00.236Z,19.24
2023-01-19T08:55:26.926Z,19.41
2023-01-19T08:57:53.686Z,19.56
2023-01-19T09:00:20.521Z,20.01
2023-01-19T09:02:47.123Z,20.38
2023-01-19T09:05:13.768Z,21.36
2023-01-19T09:07:40.286Z,21.88
2023-01-19T09:10:06.905Z,21.47
2023-01-19T09:12:33.311Z,21.12
2023-01-19T09:14:59.694Z,20.70
2023-01-19T09:17:26.133Z,20.25
2023-01-19T09:19:52.548Z,20.08
2023-01-19T09:22:19.495Z,19.98
2023-01-19T09:24:45.917Z,19.84
2023-01-19T09:27:12.322Z,19.79
2023-01-19T09:29:38.712Z,19.98
2023-01-19T09:32:05.404Z,19.93
2023-01-19T09:34:32.196Z,19.94
2023-01-19T09:36:58.594Z,19.89
2023-01-19T09:39:25.002Z,20.11
2023-01-19T09:41:52.423Z,19.92
2023-01-19T09:44:32.387Z,19.78
2023-01-19T09:46:58.783Z,19.72
2023-01-19T09:49:31.885Z,19.76
2023-01-19T09:51:58.307Z,19.72
2023-01-19T09:54:45.385Z,19.64
2023-01-19T09:57:12.048Z,19.73
2023-01-19T09:59:38.954Z,19.61
2023-01-19T10:02:14.397Z,19.66
2023-01-19T10:04:42.824Z,19.52
2023-01-19T10:07:10.316Z,19.37
2023-01-19T10:09:52.080Z,19.36
2023-01-19T10:12:25.670Z,19.40
2023-01-19T10:14:58.247Z,19.50
2023-01-19T10:17:29.198Z,19.37
2023-01-19T10:19:55.617Z,19.42
2023-01-19T10:22:23.313Z,19.57
2023-01-19T10:24:54.114Z,19.36
2023-01-19T10:27:21.830Z,19.22
2023-01-19T10:29:48.274Z,19.20
2023-01-19T10:32:21.179Z,19.26
2023-01-19T10:34:47.940Z,19.37
2023-01-19T10:37:17.165Z,19.34
2023-01-19T10:39:47.349Z,19.42
2023-01-19T10:42:15.404Z,19.50
2023-01-19T10:44:41.859Z,19.62
2023-01-19T10:47:13.801Z,19.83
2023-01-19T10:49:40.636Z,20.11
2023-01-19T10:52:07.719Z,20.39
2023-01-19T10:54:34.429Z,20.64
2023-01-19T10:57:04.564Z,21.06
2023-01-19T10:59:38.277Z,21.34
2023-01-19T11:02:11.033Z,21.02
2023-01-19T11:04:37.542Z,21.63
2023-01-19T11:07:14.287Z,21.54
2023-01-19T11:09:40.781Z,21.42
2023-01-19T11:12:08.669Z,21.12
2023-01-19T11:14:35.111Z,20.51
2023-01-19T11:17:01.595Z,19.80
2023-01-19T11:19:29.666Z,19.32
2023-01-19T11:22:09.043Z,19.27
2023-01-19T11:24:36.971Z,19.41
2023-01-19T11:27:03.717Z,19.37
2023-01-19T11:29:30.578Z,19.39
2023-01-19T11:31:57.779Z,19.38
2023-01-19T11:34:31.884Z,19.46
2023-01-19T11:37:05.342Z,19.51
2023-01-19T11:39:32.453Z,19.47
2023-01-19T11:41:59.404Z,19.57
2023-01-19T11:44:40.202Z,19.52
2023-01-19T11:47:07.256Z,19.52
2023-01-19T11:49:37.944Z,19.52
2023-01-19T11:52:05.669Z,19.43
2023-01-19T11:54:37.209Z,19.41
2023-01-19T11:57:06.820Z,19.46
2023-01-19T11:59:33.249Z,19.39
2023-01-19T12:02:00.361Z,19.35
2023-01-19T12:04:31.017Z,19.30
2023-01-19T12:06:57.829Z,19.32
2023-01-19T12:09:25.206Z,19.44
2023-01-19T12:12:18.038Z,19.31
2023-01-19T12:14:44.421Z,19.24
2023-01-19T12:17:13.786Z,19.27
2023-01-19T12:19:42.395Z,19.27
2023-01-19T12:22:11.434Z,19.27
2023-01-19T12:24:40.901Z,19.29
2023-01-19T12:27:18.656Z,19.26
2023-01-19T12:29:45.583Z,19.25
2023-01-19T12:32:16.655Z,19.27
2023-01-19T12:34:43.788Z,19.25
2023-01-19T12:37:31.793Z,19.18
2023-01-19T12:39:59.477Z,19.23
2023-01-19T12:42:26.046Z,19.16
2023-01-19T12:45:03.735Z,19.12
2023-01-19T12:47:30.170Z,19.13
2023-01-19T12:49:58.583Z,19.09
2023-01-19T12:52:41.581Z,19.12
2023-01-19T12:55:16.924Z,19.07
2023-01-19T12:58:09.822Z,19.00
2023-01-19T13:00:40.122Z,18.97
2023-01-19T13:03:18.876Z,18.97
2023-01-19T13:05:52.686Z,18.82
2023-01-19T13:08:19.830Z,19.05
2023-01-19T13:11:12.484Z,18.96
2023-01-19T13:13:48.267Z,19.09
2023-01-19T13:16:21.372Z,18.98
2023-01-19T13:19:06.340Z,18.96
2023-01-19T13:21:36.383Z,19.23
2023-01-19T13:24:03.822Z,19.09
2023-01-19T13:26:34.596Z,19.08
2023-01-19T13:29:22.980Z,18.99
2023-01-19T13:31:49.653Z,18.95
2023-01-19T13:34:19.874Z,18.98
2023-01-19T13:36:47.177Z,18.93
2023-01-19T13:39:18.409Z,19.06
2023-01-19T13:41:45.103Z,19.28
2023-01-19T13:44:21.734Z,19.15
2023-01-19T13:46:48.352Z,19.24
2023-01-19T13:49:14.769Z,19.12
2023-01-19T13:51:41.165Z,19.00
2023-01-19T13:54:13.316Z,19.03
2023-01-19T13:56:41.983Z,19.10
2023-01-19T13:59:11.823Z,19.12
2023-01-19T14:01:45.473Z,19.17
2023-01-19T14:04:28.507Z,19.08
2023-01-19T14:06:55.776Z,19.13
2023-01-19T14:09:22.380Z,19.09
2023-01-19T14:12:18.668Z,19.24
2023-01-19T14:14:46.804Z,19.16
2023-01-19T14:17:26.696Z,19.03
2023-01-19T14:19:56.656Z,19.24
2023-01-19T14:22:39.330Z,19.08
2023-01-19T14:25:41.428Z,19.17
2023-01-19T14:28:26.304Z,19.00
2023-01-19T14:30:58.646Z,19.81
2023-01-19T14:33:40.815Z,20.20
2023-01-19T14:36:17.909Z,20.00
2023-01-19T14:38:47.477Z,20.32
2023-01-19T14:41:21.638Z,20.82
2023-01-19T14:43:48.058Z,20.98
2023-01-19T14:46:18.167Z,21.37
2023-01-19T14:48:48.008Z,21.45
2023-01-19T14:51:18.523Z,21.30
2023-01-19T14:53:51.957Z,20.34
2023-01-19T14:56:25.309Z,20.47
2023-01-19T14:58:51.715Z,19.55
2023-01-19T15:01:18.206Z,18.70
2023-01-19T15:03:45.818Z,18.16
2023-01-19T15:06:13.307Z,18.02
2023-01-19T15:08:39.698Z,17.95
2023-01-19T15:11:13.879Z,17.90
2023-01-19T15:13:40.310Z,17.83
2023-01-19T15:16:08.831Z,17.74
2023-01-19T15:18:35.327Z,17.68
2023-01-19T15:21:02.821Z,17.66
2023-01-19T15:23:29.867Z,17.60
2023-01-19T15:25:59.963Z,17.55
2023-01-19T15:28:26.392Z,17.54
2023-01-19T15:30:55.826Z,17.52
2023-01-19T15:33:22.986Z,17.46
2023-01-19T15:35:49.412Z,17.45
2023-01-19T15:38:15.810Z,17.42
2023-01-19T15:40:42.266Z,17.40
2023-01-19T15:43:11.584Z,17.34
2023-01-19T15:45:38.698Z,17.28
2023-01-19T15:48:06.159Z,17.34
2023-01-19T15:50:32.779Z,17.31
2023-01-19T15:52:59.223Z,17.21
2023-01-19T15:55:25.592Z,17.18
2023-01-19T15:57:52.011Z,17.13
2023-01-19T16:00:18.526Z,17.15
2023-01-19T16:02:45.261Z,17.12
2023-01-19T16:05:12.268Z,17.06
2023-01-19T16:07:38.960Z,17.01
2023-01-19T16:10:09.457Z,17.00
2023-01-19T16:12:36.859Z,16.95
2023-01-19T16:15:03.373Z,16.92
2023-01-19T16:17:29.868Z,16.91
2023-01-19T16:19:56.308Z,16.90
2023-01-19T16:22:22.751Z,16.87
2023-01-19T16:24:49.276Z,16.85
2023-01-19T16:27:15.738Z,16.81
2023-01-19T16:29:42.154Z,16.80
2023-01-19T16:32:08.578Z,16.79
2023-01-19T16:34:34.991Z,16.74
2023-01-19T16:37:01.414Z,16.75
2023-01-19T16:39:27.909Z,16.79
2023-01-19T16:41:54.340Z,16.75
2023-01-19T16:44:20.733Z,16.74
2023-01-19T16:46:47.212Z,16.73
2023-01-19T16:49:14.411Z,16.72
2023-01-19T16:51:41.077Z,16.71
2023-01-19T16:54:07.465Z,16.69
2023-01-19T16:56:33.924Z,16.67
2023-01-19T16:59:00.353Z,16.65
2023-01-19T17:01:27.442Z,16.60
2023-01-19T17:03:54.156Z,16.63
2023-01-19T17:06:22.732Z,16.63
2023-01-19T17:08:49.224Z,16.58
2023-01-19T17:11:20.544Z,16.61
2023-01-19T17:13:47.724Z,16.60
2023-01-19T17:16:14.286Z,16.58
2023-01-19T17:18:40.905Z,16.57
2023-01-19T17:21:08.664Z,16.60
2023-01-19T17:23:36.182Z,16.56
2023-01-19T17:26:02.859Z,16.55
2023-01-19T17:28:29.428Z,16.51
2023-01-19T17:30:55.943Z,16.51
2023-01-19T17:33:23.115Z,16.48
2023-01-19T17:35:49.574Z,16.44
2023-01-19T17:38:16.277Z,16.45
2023-01-19T17:40:42.730Z,16.42
2023-01-19T17:43:09.183Z,16.41
2023-01-19T17:45:36.149Z,16.39
2023-01-19T17:48:05.523Z,16.38
2023-01-19T17:50:32.639Z,16.38
2023-01-19T17:52:59.074Z,16.49
2023-01-19T17:55:25.527Z,16.56
2023-01-19T17:57:51.999Z,16.74
2023-01-19T18:00:18.782Z,16.89
2023-01-19T18:02:45.292Z,16.98
2023-01-19T18:05:12.698Z,17.13
2023-01-19T18:07:39.730Z,16.97
2023-01-19T18:10:07.738Z,18.11
2023-01-19T18:12:34.264Z,18.99
2023-01-19T18:15:00.693Z,19.65
2023-01-19T18:17:27.186Z,19.97
2023-01-19T18:19:54.783Z,20.22
2023-01-19T18:22:21.195Z,20.26
2023-01-19T18:24:49.128Z,19.97
2023-01-19T18:27:20.336Z,19.40
2023-01-19T18:29:46.741Z,18.91
2023-01-19T18:32:13.166Z,17.72
2023-01-19T18:34:39.739Z,16.79
2023-01-19T18:37:06.135Z,16.46
2023-01-19T18:39:32.606Z,16.36
2023-01-19T18:42:00.277Z,16.29
2023-01-19T18:44:26.799Z,16.28
2023-01-19T18:46:54.694Z,16.23
2023-01-19T18:49:21.133Z,16.24
2023-01-19T18:51:48.587Z,16.27
2023-01-19T18:54:15.055Z,16.25
2023-01-19T18:56:41.484Z,16.24
2023-01-19T18:59:07.923Z,16.23
2023-01-19T19:01:35.611Z,16.25
2023-01-19T19:04:02.310Z,16.17
2023-01-19T19:06:28.838Z,16.16
2023-01-19T19:08:55.945Z,16.10
2023-01-19T19:11:22.838Z,15.97
2023-01-19T19:13:56.373Z,15.93
2023-01-19T19:16:22.871Z,15.88
2023-01-19T19:18:50.061Z,15.90
2023-01-19T19:21:16.940Z,15.87
2023-01-19T19:23:43.335Z,15.84
2023-01-19T19:26:10.608Z,15.80
2023-01-19T19:28:37.224Z,15.79
2023-01-19T19:31:04.540Z,15.77
2023-01-19T19:33:31.031Z,15.77
2023-01-19T19:35:58.116Z,15.70
2023-01-19T19:38:24.542Z,15.70
2023-01-19T19:40:50.983Z,15.69
2023-01-19T19:43:17.379Z,15.65
2023-01-19T19:45:44.875Z,15.63
2023-01-19T19:48:11.260Z,15.58
2023-01-19T19:50:37.652Z,15.63
2023-01-19T19:53:04.085Z,15.58
2023-01-19T19:55:30.482Z,15.57
2023-01-19T19:57:57.342Z,15.63
2023-01-19T20:00:23.818Z,15.60
2023-01-19T20:02:50.424Z,15.75
2023-01-19T20:05:16.841Z,16.07
2023-01-19T20:07:48.171Z,16.49
2023-01-19T20:10:14.740Z,16.78
2023-01-19T20:12:41.262Z,16.79
2023-01-19T20:15:07.932Z,17.76
2023-01-19T20:17:34.334Z,18.71
2023-01-19T20:20:03.676Z,19.25
2023-01-19T20:22:30.094Z,19.14
2023-01-19T20:24:56.497Z,19.77
2023-01-19T20:27:23.011Z,19.61
2023-01-19T20:29:52.763Z,19.48
2023-01-19T20:32:19.160Z,19.50
2023-01-19T20:34:45.633Z,19.17
2023-01-19T20:37:12.019Z,19.16
2023-01-19T20:39:38.465Z,19.23
2023-01-19T20:42:05.564Z,19.49
2023-01-19T20:44:31.977Z,19.08
2023-01-19T20:46:58.448Z,19.55
2023-01-19T20:49:24.867Z,19.42
2023-01-19T20:51:52.073Z,19.48
2023-01-19T20:54:19.010Z,19.50
2023-01-19T20:56:45.548Z,19.79
2023-01-19T20:59:12.098Z,19.25
2023-01-19T21:01:38.733Z,19.38
2023-01-19T21:04:05.265Z,19.48
2023-01-19T21:06:31.650Z,19.29
2023-01-19T21:08:58.042Z,19.58
2023-01-19T21:11:24.513Z,19.84
2023-01-19T21:13:55.360Z,19.80
2023-01-19T21:16:25.529Z,19.71
2023-01-19T21:18:51.990Z,19.64
2023-01-19T21:21:29.943Z,19.74
2023-01-19T21:23:57.664Z,19.38
2023-01-19T21:26:24.177Z,19.37
2023-01-19T21:28:50.611Z,19.28
2023-01-19T21:31:17.183Z,19.22
2023-01-19T21:33:43.960Z,19.12
2023-01-19T21:36:10.611Z,18.89
2023-01-19T21:38:37.439Z,19.17
2023-01-19T21:41:07.648Z,19.25
2023-01-19T21:43:35.065Z,19.19
2023-01-19T21:46:08.521Z,19.01
2023-01-19T21:48:35.008Z,19.06
2023-01-19T21:51:01.427Z,18.97
2023-01-19T21:53:27.838Z,18.79
2023-01-19T21:55:54.235Z,18.91
2023-01-19T21:58:21.643Z,18.74
2023-01-19T22:00:48.086Z,18.83
2023-01-19T22:03:14.569Z,18.75
2023-01-19T22:05:41.116Z,18.73
2023-01-19T22:08:07.622Z,18.66
2023-01-19T22:10:37.485Z,18.67
2023-01-19T22:13:04.016Z,18.66
2023-01-19T22:15:31.374Z,18.51
2023-01-19T22:17:57.791Z,18.58
2023-01-19T22:20:24.333Z,18.47
2023-01-19T22:22:50.751Z,19.04
2023-01-19T22:25:17.166Z,18.66
2023-01-19T22:27:43.597Z,18.79
2023-01-19T22:30:10.210Z,18.77
2023-01-19T22:32:36.658Z,18.87
2023-01-19T22:35:03.110Z,18.71
2023-01-19T22:37:29.563Z,18.94
2023-01-19T22:39:55.991Z,19.09
2023-01-19T22:42:22.420Z,18.84
2023-01-19T22:44:48.800Z,18.85
2023-01-19T22:47:15.182Z,18.79
2023-01-19T22:49:41.558Z,18.93
2023-01-19T22:52:07.962Z,18.70
2023-01-19T22:54:34.345Z,18.85
2023-01-19T22:57:00.852Z,18.74
2023-01-19T22:59:27.298Z,18.65
2023-01-19T23:01:53.905Z,18.62
2023-01-19T23:04:20.452Z,19.17
2023-01-19T23:06:50.361Z,19.07
2023-01-19T23:09:16.840Z,19.11
2023-01-19T23:11:43.935Z,18.93
2023-01-19T23:14:13.882Z,19.03
2023-01-19T23:16:40.305Z,19.05
2023-01-19T23:19:07.105Z,18.82
2023-01-19T23:21:33.553Z,18.87
2023-01-19T23:24:01.146Z,18.80
2023-01-19T23:26:27.810Z,18.76
2023-01-19T23:28:55.536Z,18.98
2023-01-19T23:31:22.972Z,18.74
2023-01-19T23:33:50.047Z,18.71
2023-01-19T23:36:16.628Z,18.79
2023-01-19T23:38:47.047Z,18.61
2023-01-19T23:41:13.474Z,18.75
2023-01-19T23:43:39.872Z,18.94
2023-01-19T23:46:07.023Z,18.45
2023-01-19T23:48:33.815Z,18.49
2023-01-19T23:51:06.990Z,18.49
2023-01-19T23:53:33.435Z,18.90
2023-01-19T23:55:59.822Z,18.97
2023-01-19T23:58:26.223Z,19.12
